Time;durP1;ratioP1;P1;durP2;ratioP2;P2;SDS_P1;SDS_P2;PMS_P1;PMS_P2;Temp;Humidity;BMP_temperature;BMP_pressure;BME280_temperature;BME280_humidity;BME280_pressure;Samples;Min_cycle;Max_cycle;Signal;HPM_P1;HPM_P2
2022/04/02 00:01:07;;;;;;;5.87;1.50;;;;;;;;;;5018875;28;20196;-67
2022/04/02 00:03:33;;;;;;;2.47;1.10;;;;;;;;;;5024733;28;20186;-67
2022/04/02 00:05:58;;;;;;;2.90;1.07;;;;;;;;;;5025508;28;20178;-67
2022/04/02 00:08:25;;;;;;;2.50;1.20;;;;;;;;;;5025176;28;20529;-68
2022/04/02 00:10:51;;;;;;;3.63;1.33;;;;;;;;;;5028142;28;20199;-67
2022/04/02 00:13:16;;;;;;;4.83;1.50;;;;;;;;;;5020493;28;20585;-68
2022/04/02 00:15:42;;;;;;;3.00;1.10;;;;;;;;;;5024684;28;20178;-67
2022/04/02 00:18:07;;;;;;;3.17;1.50;;;;;;;;;;5015043;28;20278;-67
2022/04/02 00:20:32;;;;;;;5.27;1.80;;;;;;;;;;5027621;28;20183;-67
2022/04/02 00:25:42;;;;;;;4.37;1.20;;;;;;;;;;5022105;28;20205;-67
2022/04/02 00:28:07;;;;;;;3.83;1.63;;;;;;;;;;5025848;28;20210;-67
2022/04/02 00:30:32;;;;;;;2.40;1.57;;;;;;;;;;5012643;28;20194;-68
2022/04/02 00:32:58;;;;;;;2.77;1.33;;;;;;;;;;5016293;28;20647;-68
2022/04/02 00:35:23;;;;;;;1.83;1.30;;;;;;;;;;5023747;28;20207;-68
2022/04/02 00:37:49;;;;;;;3.73;1.40;;;;;;;;;;5025901;28;20650;-68
2022/04/02 00:40:14;;;;;;;2.23;1.23;;;;;;;;;;5022476;28;20274;-68
2022/04/02 00:42:39;;;;;;;1.87;1.10;;;;;;;;;;5023997;28;20696;-67
2022/04/02 00:45:05;;;;;;;3.83;1.30;;;;;;;;;;5020603;28;20605;-67
2022/04/02 00:47:30;;;;;;;2.10;1.00;;;;;;;;;;5020357;28;20178;-68
2022/04/02 00:49:57;;;;;;;4.40;1.73;;;;;;;;;;5028246;28;20265;-67
2022/04/02 00:52:25;;;;;;;3.03;1.30;;;;;;;;;;5027826;28;20638;-68
2022/04/02 00:54:52;;;;;;;2.50;1.07;;;;;;;;;;5013869;28;20364;-68
2022/04/02 00:57:18;;;;;;;2.70;1.30;;;;;;;;;;5020941;28;20380;-68
2022/04/02 00:59:44;;;;;;;3.50;1.47;;;;;;;;;;5026664;28;20304;-67
2022/04/02 01:02:09;;;;;;;4.97;1.40;;;;;;;;;;5024205;28;20174;-67
2022/04/02 01:04:34;;;;;;;1.43;0.97;;;;;;;;;;5019753;28;20186;-67
2022/04/02 01:07:01;;;;;;;4.10;1.50;;;;;;;;;;5026902;28;20277;-67
2022/04/02 01:09:27;;;;;;;5.57;1.50;;;;;;;;;;5026117;28;20224;-67
2022/04/02 01:11:54;;;;;;;3.70;1.17;;;;;;;;;;5027262;28;20178;-67
2022/04/02 01:14:19;;;;;;;2.47;1.20;;;;;;;;;;5023159;28;20615;-67
2022/04/02 01:16:45;;;;;;;3.47;1.20;;;;;;;;;;5010028;28;20269;-67
2022/04/02 01:19:11;;;;;;;2.57;1.07;;;;;;;;;;5016621;28;20203;-67
2022/04/02 01:21:37;;;;;;;3.13;1.33;;;;;;;;;;5026159;28;20210;-67
2022/04/02 01:24:03;;;;;;;4.23;1.27;;;;;;;;;;5026145;28;20229;-68
2022/04/02 01:26:29;;;;;;;4.37;1.40;;;;;;;;;;5014245;28;20190;-67
2022/04/02 01:28:55;;;;;;;2.13;1.17;;;;;;;;;;5027734;28;20190;-67
2022/04/02 01:31:21;;;;;;;2.33;1.10;;;;;;;;;;5015417;28;20301;-68
2022/04/02 01:33:49;;;;;;;4.07;1.43;;;;;;;;;;5021584;28;20277;-67
2022/04/02 01:36:15;;;;;;;2.23;1.20;;;;;;;;;;5022779;28;20190;-68
2022/04/02 01:38:40;;;;;;;2.73;1.03;;;;;;;;;;5021905;28;20539;-67
2022/04/02 01:41:06;;;;;;;4.50;1.33;;;;;;;;;;5017476;28;20197;-67
2022/04/02 01:43:32;;;;;;;4.80;1.40;;;;;;;;;;5017755;28;20523;-65
2022/04/02 01:45:58;;;;;;;2.50;1.20;;;;;;;;;;5026439;28;20185;-68
2022/04/02 01:48:24;;;;;;;2.50;1.20;;;;;;;;;;5026298;28;20740;-67
2022/04/02 01:50:50;;;;;;;2.10;1.33;;;;;;;;;;5024302;28;20244;-68
2022/04/02 01:53:17;;;;;;;2.87;1.30;;;;;;;;;;5020291;28;20182;-67
2022/04/02 01:55:43;;;;;;;4.57;1.50;;;;;;;;;;5025793;28;20248;-68
2022/04/02 01:58:08;;;;;;;6.57;1.00;;;;;;;;;;5024818;28;20618;-67
2022/04/02 02:00:34;;;;;;;3.83;1.30;;;;;;;;;;5021107;28;20541;-68
2022/04/02 02:02:59;;;;;;;2.83;1.20;;;;;;;;;;5016132;28;20193;-67
2022/04/02 02:05:26;;;;;;;2.50;1.10;;;;;;;;;;5025791;28;20229;-68
2022/04/02 02:07:52;;;;;;;2.83;1.47;;;;;;;;;;5023858;28;20253;-68
2022/04/02 02:10:18;;;;;;;4.13;1.50;;;;;;;;;;5023350;28;20595;-67
2022/04/02 02:12:44;;;;;;;3.20;1.37;;;;;;;;;;5022992;28;20595;-67
2022/04/02 02:15:16;;;;;;;2.10;1.20;;;;;;;;;;5024668;28;20193;-67
2022/04/02 02:17:45;;;;;;;3.60;1.60;;;;;;;;;;5023789;28;20280;-67
2022/04/02 02:20:12;;;;;;;4.33;1.20;;;;;;;;;;5023599;28;20197;-67
2022/04/02 02:22:38;;;;;;;3.30;1.40;;;;;;;;;;5020131;28;20523;-67
2022/04/02 02:25:05;;;;;;;3.97;1.37;;;;;;;;;;5022602;28;20189;-67
2022/04/02 02:27:30;;;;;;;4.63;1.83;;;;;;;;;;5025781;28;20273;-68
2022/04/02 02:29:56;;;;;;;5.30;1.10;;;;;;;;;;5022529;28;20317;-67
2022/04/02 02:32:21;;;;;;;2.27;1.20;;;;;;;;;;5024328;28;20202;-68
2022/04/02 02:37:30;;;;;;;2.60;1.30;;;;;;;;;;5024161;28;20279;-67
2022/04/02 02:39:56;;;;;;;3.33;1.20;;;;;;;;;;5022533;28;20339;-67
2022/04/02 02:42:21;;;;;;;4.10;1.50;;;;;;;;;;5024739;28;20260;-67
2022/04/02 02:44:47;;;;;;;4.33;1.27;;;;;;;;;;5024995;28;20210;-67
2022/04/02 02:47:12;;;;;;;3.37;1.43;;;;;;;;;;5026272;28;20200;-68
2022/04/02 02:49:38;;;;;;;4.10;1.40;;;;;;;;;;5014302;28;20281;-67
2022/04/02 02:52:03;;;;;;;5.10;1.30;;;;;;;;;;5026215;28;20706;-67
2022/04/02 02:54:29;;;;;;;5.57;1.33;;;;;;;;;;5024004;28;20233;-67
2022/04/02 02:56:54;;;;;;;3.97;1.47;;;;;;;;;;5026176;28;20641;-68
2022/04/02 02:59:20;;;;;;;5.33;1.57;;;;;;;;;;5016246;28;20294;-67
2022/04/02 03:01:45;;;;;;;2.77;1.10;;;;;;;;;;5023386;28;20174;-67
2022/04/02 03:04:11;;;;;;;5.77;1.50;;;;;;;;;;5023056;28;20714;-67
2022/04/02 03:06:37;;;;;;;2.47;1.10;;;;;;;;;;5021953;28;20268;-67
2022/04/02 03:09:03;;;;;;;2.33;1.10;;;;;;;;;;5024001;28;20245;-67
2022/04/02 03:11:28;;;;;;;6.20;1.43;;;;;;;;;;5005809;28;20225;-67
2022/04/02 03:13:54;;;;;;;2.00;1.50;;;;;;;;;;5017870;28;20197;-68
2022/04/02 03:16:21;;;;;;;4.17;1.60;;;;;;;;;;5007991;28;20246;-68
2022/04/02 03:18:47;;;;;;;2.13;1.33;;;;;;;;;;5025806;28;20233;-67
2022/04/02 03:21:12;;;;;;;4.67;1.80;;;;;;;;;;5021663;28;20226;-67
2022/04/02 03:23:37;;;;;;;7.47;1.83;;;;;;;;;;5018446;28;20246;-67
2022/04/02 03:26:03;;;;;;;4.13;1.47;;;;;;;;;;5012692;28;20336;-67
2022/04/02 03:28:28;;;;;;;3.97;1.17;;;;;;;;;;5024994;28;20529;-67
2022/04/02 03:30:54;;;;;;;5.37;1.63;;;;;;;;;;5021202;28;20254;-67
2022/04/02 03:33:20;;;;;;;4.77;1.30;;;;;;;;;;5017758;28;20247;-68
2022/04/02 03:35:46;;;;;;;3.70;1.57;;;;;;;;;;5009787;28;20186;-67
2022/04/02 03:38:11;;;;;;;5.67;1.43;;;;;;;;;;5017208;28;20182;-67
2022/04/02 03:40:36;;;;;;;3.97;1.57;;;;;;;;;;5017429;28;20166;-69
2022/04/02 03:43:03;;;;;;;3.50;1.50;;;;;;;;;;5022405;28;20193;-68
2022/04/02 03:45:29;;;;;;;4.63;1.33;;;;;;;;;;5020762;28;20182;-67
2022/04/02 03:47:54;;;;;;;4.23;1.80;;;;;;;;;;5021467;28;20688;-67
2022/04/02 03:50:20;;;;;;;5.93;1.50;;;;;;;;;;5015068;28;20222;-66
2022/04/02 03:52:46;;;;;;;5.47;1.50;;;;;;;;;;5020070;28;20190;-66
2022/04/02 03:55:12;;;;;;;5.27;1.47;;;;;;;;;;5028344;28;20488;-68
2022/04/02 03:57:39;;;;;;;2.63;1.57;;;;;;;;;;5020151;28;20361;-67
2022/04/02 04:00:06;;;;;;;2.80;1.40;;;;;;;;;;5019915;28;20655;-67
2022/04/02 04:02:32;;;;;;;2.97;1.37;;;;;;;;;;5025150;28;20182;-68
2022/04/02 04:04:59;;;;;;;4.10;1.60;;;;;;;;;;5022970;28;20929;-67
2022/04/02 04:07:24;;;;;;;2.30;1.07;;;;;;;;;;5027864;28;20226;-67
2022/04/02 04:09:50;;;;;;;3.43;1.50;;;;;;;;;;5027365;28;20457;-67
2022/04/02 04:12:17;;;;;;;5.03;1.50;;;;;;;;;;5022314;28;20593;-67
2022/04/02 04:14:43;;;;;;;4.37;1.63;;;;;;;;;;5019764;28;20186;-67
2022/04/02 04:17:08;;;;;;;3.70;1.80;;;;;;;;;;5009534;28;20259;-67
2022/04/02 04:19:33;;;;;;;4.93;1.90;;;;;;;;;;5012667;28;20573;-67
2022/04/02 04:21:59;;;;;;;2.40;1.57;;;;;;;;;;5024234;28;20189;-67
2022/04/02 04:24:24;;;;;;;3.10;1.50;;;;;;;;;;5022479;28;20178;-67
2022/04/02 04:26:49;;;;;;;3.50;1.60;;;;;;;;;;5015066;28;20337;-67
2022/04/02 04:29:15;;;;;;;3.67;1.73;;;;;;;;;;5022488;28;20167;-67
2022/04/02 04:31:40;;;;;;;4.57;1.50;;;;;;;;;;5012843;28;20208;-67
2022/04/02 04:34:06;;;;;;;8.10;1.93;;;;;;;;;;5028213;28;20249;-67
2022/04/02 04:36:32;;;;;;;4.23;1.90;;;;;;;;;;5027701;28;20650;-67
2022/04/02 04:38:58;;;;;;;2.80;1.40;;;;;;;;;;5024507;28;20506;-67
2022/04/02 04:41:24;;;;;;;4.93;1.90;;;;;;;;;;5012687;28;20237;-67
2022/04/02 04:43:50;;;;;;;3.67;1.60;;;;;;;;;;5015555;28;20627;-67
2022/04/02 04:46:17;;;;;;;4.60;1.20;;;;;;;;;;5027478;28;20174;-67
2022/04/02 04:48:43;;;;;;;3.27;1.50;;;;;;;;;;5027248;28;20179;-67
2022/04/02 04:51:09;;;;;;;2.63;1.67;;;;;;;;;;5016407;28;20175;-67
2022/04/02 04:53:34;;;;;;;3.07;1.70;;;;;;;;;;5025110;28;20530;-67
2022/04/02 04:56:00;;;;;;;4.23;1.70;;;;;;;;;;5021719;28;20181;-67
2022/04/02 04:58:27;;;;;;;4.03;1.47;;;;;;;;;;5026983;28;20214;-67
2022/04/02 05:00:53;;;;;;;2.57;1.47;;;;;;;;;;5024553;28;20194;-67
2022/04/02 05:03:20;;;;;;;3.40;1.90;;;;;;;;;;5024326;28;20557;-67
2022/04/02 05:05:46;;;;;;;3.90;1.77;;;;;;;;;;5014074;28;20182;-67
2022/04/02 05:08:12;;;;;;;3.37;1.77;;;;;;;;;;5027030;28;20309;-67
2022/04/02 05:10:40;;;;;;;4.33;1.97;;;;;;;;;;5023134;28;20186;-67
2022/04/02 05:13:08;;;;;;;3.23;2.33;;;;;;;;;;5019909;28;20178;-67
2022/04/02 05:15:35;;;;;;;9.30;2.60;;;;;;;;;;5013298;28;20730;-67
2022/04/02 05:18:01;;;;;;;4.63;2.43;;;;;;;;;;5022949;28;20600;-67
2022/04/02 05:20:26;;;;;;;6.40;3.30;;;;;;;;;;5023013;28;20487;-67
2022/04/02 05:22:52;;;;;;;6.40;3.10;;;;;;;;;;5022300;28;20669;-66
2022/04/02 05:25:17;;;;;;;7.10;3.20;;;;;;;;;;5022049;28;20174;-66
2022/04/02 05:27:43;;;;;;;7.47;3.40;;;;;;;;;;5024791;28;20182;-66
2022/04/02 05:30:11;;;;;;;5.27;3.53;;;;;;;;;;5024413;28;20265;-66
2022/04/02 05:32:36;;;;;;;6.07;3.47;;;;;;;;;;5021356;28;20197;-67
2022/04/02 05:35:02;;;;;;;7.07;3.53;;;;;;;;;;5021195;28;20193;-67
2022/04/02 05:37:28;;;;;;;5.53;2.93;;;;;;;;;;5021949;28;20187;-67
2022/04/02 05:39:53;;;;;;;4.27;2.53;;;;;;;;;;5018884;28;20218;-67
2022/04/02 05:42:18;;;;;;;5.20;2.67;;;;;;;;;;5022885;28;20208;-67
2022/04/02 05:44:44;;;;;;;7.43;2.70;;;;;;;;;;5026907;28;20842;-66
2022/04/02 05:47:09;;;;;;;5.93;2.30;;;;;;;;;;5019077;28;20190;-67
2022/04/02 05:49:36;;;;;;;3.27;2.27;;;;;;;;;;5025820;28;20213;-67
2022/04/02 05:52:02;;;;;;;4.10;2.20;;;;;;;;;;5015718;28;20194;-67
2022/04/02 05:54:27;;;;;;;3.30;1.77;;;;;;;;;;5020825;28;20281;-67
2022/04/02 05:56:53;;;;;;;3.87;1.60;;;;;;;;;;5023299;28;20182;-67
2022/04/02 05:59:20;;;;;;;3.37;1.77;;;;;;;;;;5026300;28;20219;-66
2022/04/02 06:01:45;;;;;;;5.43;1.80;;;;;;;;;;5024180;28;20189;-68
2022/04/02 06:04:11;;;;;;;3.97;2.23;;;;;;;;;;5012252;28;20194;-67
2022/04/02 06:06:37;;;;;;;7.53;2.30;;;;;;;;;;5020015;28;20276;-66
2022/04/02 06:09:03;;;;;;;7.10;1.97;;;;;;;;;;5022081;28;20217;-67
2022/04/02 06:11:29;;;;;;;3.43;1.80;;;;;;;;;;5023055;28;20229;-67
2022/04/02 06:13:55;;;;;;;6.07;2.03;;;;;;;;;;5022571;28;20190;-66
2022/04/02 06:16:20;;;;;;;6.93;2.40;;;;;;;;;;5020254;28;20189;-67
2022/04/02 06:18:46;;;;;;;4.70;2.27;;;;;;;;;;5026481;28;20263;-67
2022/04/02 06:21:11;;;;;;;5.57;1.90;;;;;;;;;;5021164;28;20523;-67
2022/04/02 06:23:37;;;;;;;5.90;2.10;;;;;;;;;;5023760;28;20202;-66
2022/04/02 06:26:02;;;;;;;5.00;2.33;;;;;;;;;;5023054;28;20633;-67
2022/04/02 06:28:28;;;;;;;5.13;2.20;;;;;;;;;;5025830;28;20232;-66
2022/04/02 06:30:53;;;;;;;4.60;2.33;;;;;;;;;;5021666;28;20934;-66
2022/04/02 06:33:18;;;;;;;6.33;2.43;;;;;;;;;;5021706;28;20190;-67
2022/04/02 06:35:44;;;;;;;5.53;2.70;;;;;;;;;;5019674;28;20237;-67
2022/04/02 06:38:09;;;;;;;5.80;2.27;;;;;;;;;;5025330;28;20178;-67
2022/04/02 06:40:34;;;;;;;7.60;2.57;;;;;;;;;;5024045;28;20267;-67
2022/04/02 06:43:01;;;;;;;9.23;2.00;;;;;;;;;;5022575;28;20182;-67
2022/04/02 06:45:26;;;;;;;4.30;2.50;;;;;;;;;;5024091;28;20186;-67
2022/04/02 06:47:52;;;;;;;5.23;2.43;;;;;;;;;;5022829;28;20231;-67
2022/04/02 06:50:17;;;;;;;8.47;2.30;;;;;;;;;;5024241;28;20715;-67
2022/04/02 06:52:44;;;;;;;5.20;2.00;;;;;;;;;;5023755;28;20201;-67
2022/04/02 06:55:11;;;;;;;4.00;2.10;;;;;;;;;;5024377;28;20210;-67
2022/04/02 06:57:45;;;;;;;5.70;2.10;;;;;;;;;;5020869;28;20182;-67
2022/04/02 07:00:11;;;;;;;9.17;2.47;;;;;;;;;;5024598;28;20669;-67
2022/04/02 07:02:40;;;;;;;6.07;2.00;;;;;;;;;;5021841;28;20182;-67
2022/04/02 07:05:06;;;;;;;4.73;2.90;;;;;;;;;;5023938;28;20550;-67
2022/04/02 07:07:31;;;;;;;6.07;2.47;;;;;;;;;;5021384;28;20534;-67
2022/04/02 07:09:56;;;;;;;6.30;2.33;;;;;;;;;;5026077;28;20248;-67
2022/04/02 07:12:22;;;;;;;5.27;2.30;;;;;;;;;;5021353;28;20670;-67
2022/04/02 07:14:47;;;;;;;5.07;2.47;;;;;;;;;;5021233;28;20178;-67
2022/04/02 07:17:14;;;;;;;5.40;2.33;;;;;;;;;;5024312;28;20201;-67
2022/04/02 07:19:40;;;;;;;9.70;3.00;;;;;;;;;;5024486;28;20787;-67
2022/04/02 07:22:09;;;;;;;3.40;2.20;;;;;;;;;;5015453;28;20186;-67
2022/04/02 07:24:39;;;;;;;5.57;2.30;;;;;;;;;;5029295;28;20182;-67
2022/04/02 07:27:05;;;;;;;3.70;2.23;;;;;;;;;;5023461;28;20304;-67
2022/04/02 07:29:34;;;;;;;5.37;2.37;;;;;;;;;;5027988;28;20512;-67
2022/04/02 07:32:00;;;;;;;6.30;2.97;;;;;;;;;;5027762;28;20255;-67
2022/04/02 07:34:26;;;;;;;11.23;3.23;;;;;;;;;;5029714;28;20182;-67
2022/04/02 07:37:12;;;;;;;9.43;3.13;;;;;;;;;;5029477;28;20190;-67
2022/04/02 07:39:49;;;;;;;7.03;2.63;;;;;;;;;;5017909;28;20245;-67
2022/04/02 07:42:33;;;;;;;4.97;2.93;;;;;;;;;;5027521;28;20668;-67
2022/04/02 07:45:13;;;;;;;5.43;2.80;;;;;;;;;;5028029;28;20664;-67
2022/04/02 07:47:41;;;;;;;7.27;2.90;;;;;;;;;;5024472;28;20212;-67
2022/04/02 07:50:09;;;;;;;6.67;3.10;;;;;;;;;;5021751;28;20206;-67
2022/04/02 07:52:36;;;;;;;4.83;2.67;;;;;;;;;;5026528;28;20182;-67
2022/04/02 07:55:05;;;;;;;8.87;2.93;;;;;;;;;;5026999;28;20295;-68
2022/04/02 07:57:39;;;;;;;4.57;2.50;;;;;;;;;;5026283;28;20186;-68
2022/04/02 08:00:07;;;;;;;7.30;2.77;;;;;;;;;;5026275;28;20296;-68
2022/04/02 08:02:39;;;;;;;3.57;2.53;;;;;;;;;;5020656;28;20182;-68
2022/04/02 08:05:10;;;;;;;4.17;2.20;;;;;;;;;;5028328;28;20178;-67
2022/04/02 08:07:38;;;;;;;5.57;2.73;;;;;;;;;;5011359;28;20710;-67
2022/04/02 08:10:06;;;;;;;4.37;2.53;;;;;;;;;;5028422;28;20181;-67
2022/04/02 08:12:35;;;;;;;6.90;3.17;;;;;;;;;;5017777;28;20222;-67
2022/04/02 08:15:05;;;;;;;5.37;2.43;;;;;;;;;;5027168;28;20217;-68
2022/04/02 08:17:32;;;;;;;8.77;2.60;;;;;;;;;;5025008;28;20256;-68
2022/04/02 08:19:59;;;;;;;4.10;2.33;;;;;;;;;;5024409;28;20229;-68
2022/04/02 08:22:24;;;;;;;8.40;3.03;;;;;;;;;;5026040;28;20279;-68
2022/04/02 08:24:50;;;;;;;5.33;2.40;;;;;;;;;;5022386;28;20266;-68
2022/04/02 08:27:36;;;;;;;6.00;2.70;;;;;;;;;;5025109;28;20170;-68
2022/04/02 08:30:30;;;;;;;5.97;2.80;;;;;;;;;;5027147;28;20520;-68
2022/04/02 08:33:09;;;;;;;6.70;2.80;;;;;;;;;;5012377;28;20665;-68
2022/04/02 08:35:40;;;;;;;6.87;2.37;;;;;;;;;;5017079;28;20496;-68
2022/04/02 08:38:27;;;;;;;9.73;3.00;;;;;;;;;;5018574;28;20567;-68
2022/04/02 08:41:08;;;;;;;2.80;1.93;;;;;;;;;;5027698;28;20469;-68
2022/04/02 08:43:54;;;;;;;7.43;2.57;;;;;;;;;;5022776;28;20321;-68
2022/04/02 08:46:54;;;;;;;3.23;1.80;;;;;;;;;;5020007;28;20182;-68
2022/04/02 08:49:46;;;;;;;4.90;2.40;;;;;;;;;;5022668;28;20187;-68
2022/04/02 08:52:14;;;;;;;5.33;2.20;;;;;;;;;;5023594;28;20202;-68
2022/04/02 08:54:53;;;;;;;2.53;1.73;;;;;;;;;;5028519;28;20285;-68
2022/04/02 08:57:21;;;;;;;4.17;2.20;;;;;;;;;;5026992;28;20221;-68
2022/04/02 09:00:06;;;;;;;4.77;2.30;;;;;;;;;;5023469;28;20190;-68
2022/04/02 09:02:46;;;;;;;5.43;2.80;;;;;;;;;;5013541;28;20186;-68
2022/04/02 09:05:45;;;;;;;4.30;2.40;;;;;;;;;;5025381;28;20272;-68
2022/04/02 09:08:53;;;;;;;3.33;1.80;;;;;;;;;;5021941;28;20225;-68
2022/04/02 09:11:50;;;;;;;4.80;2.37;;;;;;;;;;5020559;28;20173;-69
2022/04/02 09:14:35;;;;;;;5.17;2.40;;;;;;;;;;5006173;28;20190;-69
2022/04/02 09:17:26;;;;;;;4.03;1.83;;;;;;;;;;5019126;28;20258;-69
2022/04/02 09:20:05;;;;;;;2.80;1.70;;;;;;;;;;5024694;28;20384;-68
2022/04/02 09:22:35;;;;;;;3.20;1.87;;;;;;;;;;5024243;28;20243;-68
2022/04/02 09:25:19;;;;;;;3.67;1.83;;;;;;;;;;5024060;28;20170;-68
2022/04/02 09:28:07;;;;;;;2.07;1.60;;;;;;;;;;5023761;28;20235;-68
2022/04/02 09:30:51;;;;;;;4.33;1.70;;;;;;;;;;5026423;28;20316;-68
2022/04/02 09:33:53;;;;;;;5.87;2.00;;;;;;;;;;5022391;28;20201;-68
2022/04/02 09:36:46;;;;;;;3.90;1.90;;;;;;;;;;5024672;28;20715;-68
2022/04/02 09:39:21;;;;;;;6.97;1.87;;;;;;;;;;5019845;28;20539;-68
2022/04/02 09:41:58;;;;;;;2.63;1.70;;;;;;;;;;5023904;28;20169;-68
2022/04/02 09:44:45;;;;;;;3.67;1.63;;;;;;;;;;5025503;28;20276;-68
2022/04/02 09:47:15;;;;;;;6.77;1.80;;;;;;;;;;5020449;28;20565;-68
2022/04/02 09:49:40;;;;;;;3.03;1.70;;;;;;;;;;5024743;28;20761;-68
2022/04/02 09:52:08;;;;;;;3.27;1.57;;;;;;;;;;5021488;28;20182;-68
2022/04/02 09:55:03;;;;;;;2.17;1.50;;;;;;;;;;5025015;28;20197;-68
2022/04/02 09:57:51;;;;;;;3.23;1.50;;;;;;;;;;5018867;28;20201;-68
2022/04/02 10:00:16;;;;;;;3.33;1.77;;;;;;;;;;5021299;28;20214;-68
2022/04/02 10:03:20;;;;;;;2.00;1.37;;;;;;;;;;5020401;28;20242;-68
2022/04/02 10:06:08;;;;;;;5.87;1.90;;;;;;;;;;5020083;28;20617;-68
2022/04/02 10:08:49;;;;;;;4.47;2.13;;;;;;;;;;5017052;28;20704;-68
2022/04/02 10:11:17;;;;;;;3.43;1.20;;;;;;;;;;5023987;28;20178;-68
2022/04/02 10:13:44;;;;;;;2.13;1.00;;;;;;;;;;5024135;28;20581;-68
2022/04/02 10:16:12;;;;;;;1.73;1.20;;;;;;;;;;5018794;28;20186;-69
2022/04/02 10:18:38;;;;;;;2.13;1.33;;;;;;;;;;5021282;28;20263;-68
2022/04/02 10:21:07;;;;;;;2.80;0.97;;;;;;;;;;5016682;28;20186;-70
2022/04/02 10:23:37;;;;;;;1.90;0.90;;;;;;;;;;5016121;28;20241;-68
2022/04/02 10:26:07;;;;;;;3.17;1.23;;;;;;;;;;5010317;28;20564;-68
2022/04/02 10:28:51;;;;;;;2.07;1.20;;;;;;;;;;5016579;28;20552;-67
2022/04/02 10:31:37;;;;;;;1.70;0.93;;;;;;;;;;5025886;28;20734;-69
2022/04/02 10:34:10;;;;;;;3.77;0.93;;;;;;;;;;5020206;28;20265;-68
2022/04/02 10:36:42;;;;;;;0.93;0.63;;;;;;;;;;5010833;28;20487;-68
2022/04/02 10:39:08;;;;;;;1.90;1.10;;;;;;;;;;5020336;28;20201;-69
2022/04/02 10:41:39;;;;;;;1.90;0.93;;;;;;;;;;5023997;28;20190;-67
2022/04/02 10:44:21;;;;;;;2.47;1.43;;;;;;;;;;5024140;28;20265;-68
2022/04/02 10:46:49;;;;;;;3.67;1.40;;;;;;;;;;5021392;28;20716;-68
2022/04/02 10:49:26;;;;;;;1.00;0.80;;;;;;;;;;5024288;28;20178;-68
2022/04/02 10:51:54;;;;;;;1.20;1.00;;;;;;;;;;5023643;28;20260;-67
2022/04/02 10:54:27;;;;;;;2.47;1.67;;;;;;;;;;5025169;28;20210;-68
2022/04/02 10:56:53;;;;;;;3.17;1.50;;;;;;;;;;5017528;28;20197;-68
2022/04/02 10:59:19;;;;;;;3.67;1.60;;;;;;;;;;5014395;28;20272;-68
2022/04/02 11:01:46;;;;;;;4.57;1.40;;;;;;;;;;5022731;28;20179;-68
2022/04/02 11:04:40;;;;;;;1.57;0.90;;;;;;;;;;5022962;28;20583;-68
2022/04/02 11:07:06;;;;;;;0.97;0.70;;;;;;;;;;5022474;28;20604;-67
2022/04/02 11:09:32;;;;;;;5.67;1.07;;;;;;;;;;5020910;28;20270;-68
2022/04/02 11:12:11;;;;;;;1.53;0.90;;;;;;;;;;5019776;28;20232;-68
2022/04/02 11:14:42;;;;;;;2.00;0.87;;;;;;;;;;5021995;28;20941;-68
2022/04/02 11:17:08;;;;;;;2.07;1.30;;;;;;;;;;5023221;28;20232;-68
2022/04/02 11:22:27;;;;;;;3.50;1.40;;;;;;;;;;5021755;28;20193;-68
2022/04/02 11:25:11;;;;;;;3.67;1.67;;;;;;;;;;5021598;28;20677;-68
2022/04/02 11:27:38;;;;;;;4.37;1.30;;;;;;;;;;5022514;28;20187;-68
2022/04/02 11:30:15;;;;;;;1.90;1.03;;;;;;;;;;5023650;28;20475;-68
2022/04/02 11:32:48;;;;;;;2.23;1.07;;;;;;;;;;5023000;28;20486;-68
2022/04/02 11:35:29;;;;;;;1.87;1.10;;;;;;;;;;5022555;28;20654;-68
2022/04/02 11:38:26;;;;;;;2.87;1.20;;;;;;;;;;5022869;28;20558;-68
2022/04/02 11:40:57;;;;;;;4.77;1.40;;;;;;;;;;5024251;28;20190;-69
2022/04/02 11:43:34;;;;;;;1.97;1.30;;;;;;;;;;5022610;28;20818;-68
2022/04/02 11:46:01;;;;;;;3.03;1.40;;;;;;;;;;5018889;28;21698;-68
2022/04/02 11:48:33;;;;;;;2.57;1.13;;;;;;;;;;5021587;28;20596;-67
2022/04/02 11:51:13;;;;;;;4.17;1.50;;;;;;;;;;5024506;28;20627;-68
2022/04/02 11:53:40;;;;;;;1.90;1.27;;;;;;;;;;5019943;28;20696;-68
2022/04/02 11:56:25;;;;;;;2.50;1.17;;;;;;;;;;5020377;28;20626;-68
2022/04/02 11:58:51;;;;;;;2.97;1.10;;;;;;;;;;5013071;28;20455;-68
2022/04/02 12:01:19;;;;;;;2.63;1.17;;;;;;;;;;5025721;28;20308;-68
2022/04/02 12:03:45;;;;;;;1.87;1.00;;;;;;;;;;5020395;28;20597;-68
2022/04/02 12:06:11;;;;;;;2.03;1.23;;;;;;;;;;5028904;28;20182;-68
2022/04/02 12:08:40;;;;;;;2.13;1.00;;;;;;;;;;5026893;28;20192;-68
2022/04/02 12:11:09;;;;;;;1.85;1.08;;;;;;;;;;5026644;28;20178;-68
2022/04/02 12:13:35;;;;;;;2.05;1.13;;;;;;;;;;5029965;28;20190;-69
2022/04/02 12:16:13;;;;;;;2.10;1.03;;;;;;;;;;5029151;28;20181;-68
2022/04/02 12:19:12;;;;;;;0.63;0.60;;;;;;;;;;5028508;28;20282;-68
2022/04/02 12:21:41;;;;;;;3.07;1.70;;;;;;;;;;4996190;28;20284;-68
2022/04/02 12:24:08;;;;;;;2.43;1.20;;;;;;;;;;5026806;28;20179;-68
2022/04/02 12:26:34;;;;;;;2.47;1.20;;;;;;;;;;5025480;28;20186;-68
2022/04/02 12:29:01;;;;;;;2.10;1.30;;;;;;;;;;5028238;28;20273;-68
2022/04/02 12:31:30;;;;;;;2.77;1.00;;;;;;;;;;5026843;28;20233;-67
2022/04/02 12:33:57;;;;;;;2.97;1.13;;;;;;;;;;5022303;28;20188;-68
2022/04/02 12:36:38;;;;;;;6.27;1.20;;;;;;;;;;5024349;28;20745;-68
2022/04/02 12:39:09;;;;;;;3.43;1.00;;;;;;;;;;5018777;28;20698;-67
2022/04/02 12:41:49;;;;;;;2.23;1.10;;;;;;;;;;5025424;28;20182;-68
2022/04/02 12:44:20;;;;;;;3.17;1.40;;;;;;;;;;5023789;28;20200;-68
2022/04/02 12:46:45;;;;;;;3.40;1.67;;;;;;;;;;5024551;28;20265;-68
2022/04/02 12:49:28;;;;;;;2.53;1.37;;;;;;;;;;5024466;28;20387;-68
2022/04/02 12:52:13;;;;;;;3.23;1.17;;;;;;;;;;5027693;28;20186;-68
2022/04/02 12:54:44;;;;;;;2.37;1.40;;;;;;;;;;5026483;28;20648;-68
2022/04/02 12:57:13;;;;;;;1.73;1.30;;;;;;;;;;5025638;28;20308;-68
2022/04/02 12:59:53;;;;;;;4.27;1.13;;;;;;;;;;5025621;28;20608;-68
2022/04/02 13:02:23;;;;;;;1.60;0.97;;;;;;;;;;5022974;28;20181;-68
2022/04/02 13:04:56;;;;;;;2.37;1.20;;;;;;;;;;5026758;28;20647;-68
2022/04/02 13:07:22;;;;;;;1.57;0.90;;;;;;;;;;5023857;28;20261;-68
2022/04/02 13:09:51;;;;;;;1.30;0.80;;;;;;;;;;5022432;28;20186;-68
2022/04/02 13:12:23;;;;;;;4.67;1.23;;;;;;;;;;5024993;28;20185;-68
2022/04/02 13:15:01;;;;;;;2.13;1.20;;;;;;;;;;5020124;28;20749;-68
2022/04/02 13:17:38;;;;;;;1.60;0.90;;;;;;;;;;5024699;28;20619;-68
2022/04/02 13:22:50;;;;;;;1.33;0.90;;;;;;;;;;5025108;28;20197;-69
2022/04/02 13:25:23;;;;;;;3.13;1.20;;;;;;;;;;5024053;28;20179;-69
2022/04/02 13:28:09;;;;;;;2.57;1.13;;;;;;;;;;5026105;28;20186;-70
2022/04/02 13:30:36;;;;;;;3.97;0.80;;;;;;;;;;5025502;28;20205;-68
2022/04/02 13:33:13;;;;;;;0.80;0.50;;;;;;;;;;5024528;28;20194;-69
2022/04/02 13:35:47;;;;;;;1.10;0.50;;;;;;;;;;5007039;28;20506;-68
2022/04/02 13:38:34;;;;;;;1.63;0.73;;;;;;;;;;5024508;28;20178;-68
2022/04/02 13:41:02;;;;;;;0.97;0.77;;;;;;;;;;5024788;28;20277;-69
2022/04/02 13:43:34;;;;;;;1.83;0.90;;;;;;;;;;5024456;28;20223;-68
2022/04/02 13:46:13;;;;;;;2.23;0.90;;;;;;;;;;5021600;28;20182;-68
2022/04/02 13:48:54;;;;;;;0.90;0.70;;;;;;;;;;5023374;28;20194;-68
2022/04/02 13:51:40;;;;;;;3.13;1.10;;;;;;;;;;5025359;28;20620;-68
2022/04/02 13:54:09;;;;;;;2.50;0.93;;;;;;;;;;5025480;28;20187;-67
2022/04/02 13:56:40;;;;;;;1.90;1.00;;;;;;;;;;5025614;28;20186;-68
2022/04/02 13:59:09;;;;;;;4.63;0.80;;;;;;;;;;5025760;28;20718;-68
2022/04/02 14:01:37;;;;;;;0.90;0.50;;;;;;;;;;5022960;28;20367;-68
2022/04/02 14:04:11;;;;;;;2.90;0.80;;;;;;;;;;5020106;28;20198;-68
2022/04/02 14:06:40;;;;;;;3.23;0.80;;;;;;;;;;5023643;28;20321;-69
2022/04/02 14:09:08;;;;;;;0.97;0.67;;;;;;;;;;5023288;28;20289;-68
2022/04/02 14:11:37;;;;;;;2.10;0.87;;;;;;;;;;5021972;28;20202;-68
2022/04/02 14:14:05;;;;;;;1.63;1.07;;;;;;;;;;5023938;28;20190;-68
2022/04/02 14:16:35;;;;;;;1.77;1.10;;;;;;;;;;5024262;28;20178;-68
2022/04/02 14:19:05;;;;;;;3.53;0.87;;;;;;;;;;5022878;28;20623;-68
2022/04/02 14:21:32;;;;;;;3.40;0.90;;;;;;;;;;5021055;28;20227;-68
2022/04/02 14:24:16;;;;;;;1.90;0.80;;;;;;;;;;5021713;28;20197;-67
2022/04/02 14:27:00;;;;;;;2.33;0.80;;;;;;;;;;5023012;28;20197;-68
2022/04/02 14:30:01;;;;;;;2.27;0.80;;;;;;;;;;5020528;28;20220;-68
2022/04/02 14:33:04;;;;;;;4.73;1.63;;;;;;;;;;5021788;28;20660;-68
2022/04/02 14:36:07;;;;;;;2.77;0.87;;;;;;;;;;5022419;28;20192;-68
2022/04/02 14:38:53;;;;;;;2.70;0.90;;;;;;;;;;5019936;28;20189;-68
2022/04/02 14:41:32;;;;;;;4.00;0.67;;;;;;;;;;5021176;28;20193;-68
2022/04/02 14:44:17;;;;;;;1.73;1.10;;;;;;;;;;5021280;28;20216;-67
2022/04/02 14:47:13;;;;;;;3.03;0.90;;;;;;;;;;5019896;28;20214;-67
2022/04/02 14:50:06;;;;;;;2.70;0.90;;;;;;;;;;5021241;28;20189;-69
2022/04/02 14:53:05;;;;;;;4.33;0.90;;;;;;;;;;5022158;28;20277;-67
2022/04/02 14:55:52;;;;;;;2.37;1.00;;;;;;;;;;5021630;28;20360;-68
2022/04/02 14:58:42;;;;;;;2.03;1.07;;;;;;;;;;5020861;28;20186;-68
2022/04/02 15:01:44;;;;;;;1.30;0.60;;;;;;;;;;5019747;28;20193;-69
2022/04/02 15:04:33;;;;;;;3.30;0.77;;;;;;;;;;5021576;28;20715;-68
2022/04/02 15:07:04;;;;;;;1.03;0.90;;;;;;;;;;5022245;28;20222;-68
2022/04/02 15:09:50;;;;;;;2.17;0.90;;;;;;;;;;5018111;28;20236;-68
2022/04/02 15:12:22;;;;;;;2.77;1.00;;;;;;;;;;5020387;28;20192;-67
2022/04/02 15:14:55;;;;;;;1.50;0.90;;;;;;;;;;5020629;28;20186;-68
2022/04/02 15:17:27;;;;;;;1.63;0.77;;;;;;;;;;5024590;28;20257;-67